createdAt,value
2023-02-16T00:01:33.102Z,65.70
2023-02-16T00:03:59.580Z,58.50
2023-02-16T00:06:27.081Z,61.07
2023-02-16T00:08:55.485Z,59.93
2023-02-16T00:11:50.837Z,54.80
2023-02-16T00:14:17.904Z,58.57
2023-02-16T00:16:44.755Z,60.17
2023-02-16T00:19:25.579Z,59.43
2023-02-16T00:21:54.416Z,62.07
2023-02-16T00:24:21.623Z,58.47
2023-02-16T00:26:48.632Z,63.27
2023-02-16T00:29:31.413Z,60.13
2023-02-16T00:31:59.558Z,59.77
2023-02-16T00:34:34.255Z,62.30
2023-02-16T00:37:07.778Z,63.93
2023-02-16T00:39:34.727Z,58.47
2023-02-16T00:42:04.398Z,59.23
2023-02-16T00:44:34.997Z,58.97
2023-02-16T00:47:04.454Z,62.67
2023-02-16T00:49:30.920Z,67.07
2023-02-16T00:51:57.582Z,59.17
2023-02-16T00:54:24.040Z,62.23
2023-02-16T00:56:50.527Z,58.77
2023-02-16T00:59:21.004Z,61.47
2023-02-16T01:01:47.806Z,60.03
2023-02-16T01:04:20.380Z,59.27
2023-02-16T01:07:05.886Z,54.80
2023-02-16T01:09:51.839Z,56.87
2023-02-16T01:12:19.657Z,58.30
2023-02-16T01:14:51.276Z,57.27
2023-02-16T01:17:17.908Z,53.97
2023-02-16T01:19:44.330Z,55.97
2023-02-16T01:22:10.890Z,59.03
2023-02-16T01:24:37.364Z,56.50
2023-02-16T01:27:03.839Z,58.97
2023-02-16T01:29:30.259Z,63.37
2023-02-16T01:31:57.033Z,58.57
2023-02-16T01:34:25.380Z,59.77
2023-02-16T01:36:52.218Z,59.33
2023-02-16T01:39:19.916Z,62.30
2023-02-16T01:41:59.305Z,64.00
2023-02-16T01:44:29.819Z,59.77
2023-02-16T01:47:06.600Z,58.47
2023-02-16T01:49:33.143Z,53.77
2023-02-16T01:52:19.391Z,63.43
2023-02-16T01:54:52.791Z,61.77
2023-02-16T01:57:49.950Z,57.60
2023-02-16T02:00:24.462Z,53.53
2023-02-16T02:02:54.849Z,63.03
2023-02-16T02:05:36.669Z,56.47
2023-02-16T02:08:24.975Z,58.23
2023-02-16T02:10:57.560Z,59.10
2023-02-16T02:13:41.368Z,56.93
2023-02-16T02:16:08.247Z,58.77
2023-02-16T02:18:34.814Z,58.17
2023-02-16T02:21:45.468Z,63.70
2023-02-16T02:24:36.265Z,62.60
2023-02-16T02:27:25.021Z,59.80
2023-02-16T02:30:13.547Z,59.10
2023-02-16T02:33:03.829Z,63.27
2023-02-16T02:35:50.254Z,57.10
2023-02-16T02:38:34.038Z,61.50
2023-02-16T02:41:12.320Z,60.67
2023-02-16T02:43:46.366Z,59.20
2023-02-16T02:46:16.872Z,57.43
2023-02-16T02:48:43.331Z,61.23
2023-02-16T02:51:28.860Z,55.63
2023-02-16T02:54:38.801Z,64.10
2023-02-16T02:57:32.129Z,56.73
2023-02-16T03:00:27.810Z,61.07
2023-02-16T03:03:02.445Z,53.90
2023-02-16T03:05:31.247Z,52.80
2023-02-16T03:08:14.255Z,54.53
2023-02-16T03:11:07.306Z,53.90
2023-02-16T03:13:37.146Z,53.13
2023-02-16T03:16:14.875Z,55.30
2023-02-16T03:19:01.605Z,53.53
2023-02-16T03:21:47.358Z,52.77
2023-02-16T03:24:36.071Z,55.60
2023-02-16T03:27:21.374Z,53.67
2023-02-16T03:29:48.755Z,49.77
2023-02-16T03:32:15.542Z,52.23
2023-02-16T03:34:42.501Z,51.27
2023-02-16T03:37:09.240Z,53.30
2023-02-16T03:39:55.633Z,52.03
2023-02-16T03:42:22.921Z,51.73
2023-02-16T03:44:49.328Z,50.00
2023-02-16T03:47:16.004Z,50.10
2023-02-16T03:49:42.431Z,44.33
2023-02-16T03:52:09.112Z,49.23
2023-02-16T03:54:35.496Z,55.70
2023-02-16T03:57:01.930Z,51.23
2023-02-16T03:59:28.363Z,47.43
2023-02-16T04:01:55.172Z,50.33
2023-02-16T04:04:21.686Z,51.30
2023-02-16T04:06:48.186Z,52.00
2023-02-16T04:09:14.770Z,57.80
2023-02-16T04:12:00.093Z,55.97
2023-02-16T04:14:26.687Z,52.77
2023-02-16T04:16:53.157Z,54.07
2023-02-16T04:19:19.809Z,52.43
2023-02-16T04:21:46.217Z,55.00
2023-02-16T04:24:12.592Z,53.27
2023-02-16T04:26:39.013Z,53.80
2023-02-16T04:29:05.391Z,57.70
2023-02-16T04:31:31.903Z,53.77
2023-02-16T04:33:58.569Z,56.00
2023-02-16T04:36:24.988Z,53.53
2023-02-16T04:38:51.349Z,47.70
2023-02-16T04:41:17.662Z,50.33
2023-02-16T04:43:44.085Z,53.93
2023-02-16T04:46:10.534Z,47.27
2023-02-16T04:48:37.000Z,53.23
2023-02-16T04:51:04.922Z,55.47
2023-02-16T04:53:31.538Z,56.47
2023-02-16T04:55:58.446Z,58.90
2023-02-16T04:58:24.898Z,50.47
2023-02-16T05:00:51.308Z,53.80
2023-02-16T05:03:17.718Z,58.43
2023-02-16T05:05:44.113Z,53.17
2023-02-16T05:08:12.938Z,57.73
2023-02-16T05:10:39.380Z,58.40
2023-02-16T05:13:24.438Z,54.73
2023-02-16T05:15:50.841Z,60.60
2023-02-16T05:18:17.308Z,58.63
2023-02-16T05:21:02.814Z,59.10
2023-02-16T05:23:29.535Z,60.17
2023-02-16T05:25:55.942Z,58.70
2023-02-16T05:28:22.380Z,61.50
2023-02-16T05:30:48.900Z,68.03
2023-02-16T05:33:15.263Z,63.63
2023-02-16T05:35:41.677Z,59.73
2023-02-16T05:38:08.030Z,66.57
2023-02-16T05:40:34.480Z,62.80
2023-02-16T05:43:00.868Z,61.03
2023-02-16T05:45:27.881Z,60.53
2023-02-16T05:47:54.586Z,63.63
2023-02-16T05:50:21.309Z,64.57
2023-02-16T05:52:47.765Z,63.77
2023-02-16T05:55:14.235Z,62.33
2023-02-16T05:57:40.653Z,60.87
2023-02-16T06:00:08.915Z,59.50
2023-02-16T06:02:35.373Z,68.83
2023-02-16T06:05:01.830Z,62.07
2023-02-16T06:07:28.234Z,60.00
2023-02-16T06:09:54.659Z,57.93
2023-02-16T06:12:21.246Z,65.10
2023-02-16T06:14:47.644Z,65.20
2023-02-16T06:17:14.185Z,63.77
2023-02-16T06:19:40.640Z,60.30
2023-02-16T06:22:07.086Z,66.77
2023-02-16T06:24:36.362Z,59.63
2023-02-16T06:27:02.771Z,62.57
2023-02-16T06:29:29.787Z,62.43
2023-02-16T06:31:56.466Z,61.53
2023-02-16T06:34:22.943Z,63.13
2023-02-16T06:36:49.411Z,61.53
2023-02-16T06:39:15.787Z,65.23
2023-02-16T06:41:42.170Z,65.87
2023-02-16T06:44:13.901Z,62.97
2023-02-16T06:46:46.255Z,63.80
2023-02-16T06:49:16.745Z,58.87
2023-02-16T06:51:43.427Z,63.37
2023-02-16T06:54:10.114Z,60.87
2023-02-16T06:56:37.964Z,61.27
2023-02-16T06:59:05.281Z,54.57
2023-02-16T07:01:32.411Z,53.47
2023-02-16T07:03:59.089Z,54.60
2023-02-16T07:06:27.920Z,57.20
2023-02-16T07:08:54.436Z,55.30
2023-02-16T07:11:21.664Z,57.37
2023-02-16T07:13:48.085Z,57.07
2023-02-16T07:16:15.733Z,50.13
2023-02-16T07:18:42.441Z,54.00
2023-02-16T07:21:08.829Z,50.37
2023-02-16T07:23:35.342Z,52.27
2023-02-16T07:26:01.855Z,51.30
2023-02-16T07:28:28.277Z,51.90
2023-02-16T07:30:55.374Z,54.37
2023-02-16T07:33:21.806Z,54.97
2023-02-16T07:35:48.255Z,55.30
2023-02-16T07:38:15.455Z,53.00
2023-02-16T07:40:42.146Z,53.87
2023-02-16T07:43:08.667Z,52.07
2023-02-16T07:45:36.014Z,53.40
2023-02-16T07:48:02.644Z,45.87
2023-02-16T07:50:29.073Z,50.57
2023-02-16T07:52:55.494Z,48.10
2023-02-16T07:55:21.891Z,46.17
2023-02-16T07:57:49.464Z,46.73
2023-02-16T08:00:16.627Z,46.63
2023-02-16T08:02:43.154Z,43.93
2023-02-16T08:05:09.717Z,42.67
2023-02-16T08:07:36.405Z,44.70
2023-02-16T08:10:02.896Z,42.17
2023-02-16T08:12:29.406Z,43.03
2023-02-16T08:14:56.111Z,42.33
2023-02-16T08:17:22.553Z,45.00
2023-02-16T08:19:50.418Z,40.17
2023-02-16T08:22:17.865Z,42.50
2023-02-16T08:24:44.282Z,38.07
2023-02-16T08:27:11.175Z,41.13
2023-02-16T08:29:37.802Z,37.47
2023-02-16T08:32:09.195Z,39.57
2023-02-16T08:34:36.913Z,38.73
2023-02-16T08:37:04.643Z,36.53
2023-02-16T08:39:32.869Z,38.83
2023-02-16T08:42:01.089Z,39.27
2023-02-16T08:44:29.170Z,36.43
2023-02-16T08:46:58.722Z,37.47
2023-02-16T08:49:26.051Z,38.80
2023-02-16T08:51:55.397Z,34.37
2023-02-16T08:54:26.877Z,34.73
2023-02-16T08:56:54.379Z,38.00
2023-02-16T08:59:21.935Z,37.97
2023-02-16T09:01:48.776Z,35.27
2023-02-16T09:04:17.627Z,40.13
2023-02-16T09:06:45.480Z,36.47
2023-02-16T09:09:13.286Z,36.77
2023-02-16T09:11:40.298Z,37.90
2023-02-16T09:14:07.327Z,36.27
2023-02-16T09:16:35.388Z,34.27
2023-02-16T09:19:02.406Z,35.70
2023-02-16T09:21:33.281Z,36.50
2023-02-16T09:24:04.108Z,34.80
2023-02-16T09:26:32.783Z,34.70
2023-02-16T09:29:00.574Z,31.00
2023-02-16T09:31:31.008Z,31.10
2023-02-16T09:34:01.884Z,35.63
2023-02-16T09:36:28.649Z,36.03
2023-02-16T09:38:56.280Z,34.77
2023-02-16T09:41:41.061Z,34.73
2023-02-16T09:44:28.590Z,36.90
2023-02-16T09:46:57.410Z,37.43
2023-02-16T09:49:29.292Z,37.13
2023-02-16T09:52:13.769Z,34.57
2023-02-16T09:54:53.076Z,35.00
2023-02-16T09:57:23.786Z,39.60
2023-02-16T10:00:09.895Z,34.77
2023-02-16T10:03:12.172Z,34.70
2023-02-16T10:06:01.376Z,36.77
2023-02-16T10:08:57.355Z,34.50
2023-02-16T10:11:46.626Z,36.30
2023-02-16T10:14:36.929Z,32.97
2023-02-16T10:17:03.484Z,41.13
2023-02-16T10:19:38.630Z,45.80
2023-02-16T10:22:08.343Z,36.03
2023-02-16T10:24:46.437Z,35.40
2023-02-16T10:27:16.327Z,32.20
2023-02-16T10:29:43.018Z,34.83
2023-02-16T10:32:25.010Z,37.03
2023-02-16T10:35:10.847Z,37.20
2023-02-16T10:38:03.456Z,40.30
2023-02-16T10:40:34.827Z,34.10
2023-02-16T10:43:11.686Z,34.43
2023-02-16T10:45:52.957Z,32.33
2023-02-16T10:48:21.690Z,36.23
2023-02-16T10:50:58.634Z,39.03
2023-02-16T10:53:37.314Z,36.27
2023-02-16T10:56:23.771Z,38.10
2023-02-16T10:58:51.640Z,37.53
2023-02-16T11:01:20.611Z,35.40
2023-02-16T11:03:53.129Z,32.67
2023-02-16T11:06:23.043Z,36.65
2023-02-16T11:08:59.292Z,36.33
2023-02-16T11:11:27.833Z,42.20
2023-02-16T11:14:00.182Z,35.28
2023-02-16T11:16:26.992Z,32.80
2023-02-16T11:19:02.003Z,36.88
2023-02-16T11:21:52.005Z,34.05
2023-02-16T11:24:32.011Z,35.05
2023-02-16T11:27:18.434Z,36.13
2023-02-16T11:29:44.963Z,34.60
2023-02-16T11:32:13.000Z,40.28
2023-02-16T11:34:45.160Z,32.22
2023-02-16T11:37:28.352Z,31.65
2023-02-16T11:40:00.620Z,30.27
2023-02-16T11:42:35.658Z,36.50
2023-02-16T11:45:04.569Z,34.13
2023-02-16T11:47:37.495Z,34.70
2023-02-16T11:50:29.219Z,37.92
2023-02-16T11:52:58.748Z,32.30
2023-02-16T11:55:33.710Z,34.97
2023-02-16T11:58:16.574Z,36.70
2023-02-16T12:00:52.806Z,34.95
2023-02-16T12:03:31.353Z,34.92
2023-02-16T12:06:31.498Z,30.10
2023-02-16T12:09:06.992Z,34.75
2023-02-16T12:11:58.048Z,34.45
2023-02-16T12:14:41.428Z,33.60
2023-02-16T12:17:18.537Z,33.13
2023-02-16T12:19:47.730Z,34.60
2023-02-16T12:22:14.380Z,31.83
2023-02-16T12:25:11.332Z,32.40
2023-02-16T12:27:44.012Z,33.92
2023-02-16T12:30:34.004Z,34.80
2023-02-16T12:33:10.500Z,33.78
2023-02-16T12:35:53.486Z,36.83
2023-02-16T12:38:27.252Z,34.60
2023-02-16T12:41:18.770Z,36.50
2023-02-16T12:43:48.925Z,35.90
2023-02-16T12:46:23.639Z,35.08
2023-02-16T12:49:02.565Z,36.25
2023-02-16T12:51:35.676Z,36.35
2023-02-16T12:54:10.544Z,29.77
2023-02-16T12:56:42.426Z,31.52
2023-02-16T12:59:33.596Z,29.25
2023-02-16T13:02:01.036Z,27.70
2023-02-16T13:04:38.893Z,32.10
2023-02-16T13:07:28.729Z,25.55
2023-02-16T13:10:00.282Z,25.67
2023-02-16T13:12:34.985Z,27.25
2023-02-16T13:15:14.801Z,28.25
2023-02-16T13:17:56.162Z,27.95
2023-02-16T13:20:23.597Z,26.10
2023-02-16T13:23:04.912Z,25.75
2023-02-16T13:26:01.839Z,26.15
2023-02-16T13:28:56.242Z,29.33
2023-02-16T13:31:47.382Z,26.75
2023-02-16T13:34:53.486Z,28.90
2023-02-16T13:37:29.646Z,27.30
2023-02-16T13:40:23.753Z,28.30
2023-02-16T13:43:04.446Z,25.88
2023-02-16T13:45:32.693Z,27.13
2023-02-16T13:48:00.122Z,26.67
2023-02-16T13:50:33.282Z,32.38
2023-02-16T13:53:20.308Z,49.42
2023-02-16T13:55:47.249Z,24.23
2023-02-16T13:58:13.586Z,24.52
2023-02-16T14:00:42.913Z,26.83
2023-02-16T14:03:37.541Z,25.80
2023-02-16T14:06:34.262Z,28.48
2023-02-16T14:09:13.229Z,24.73
2023-02-16T14:11:52.921Z,29.10
2023-02-16T14:14:34.544Z,36.72
2023-02-16T14:17:17.644Z,39.42
2023-02-16T14:19:56.384Z,43.40
2023-02-16T14:22:37.459Z,40.63
2023-02-16T14:25:30.875Z,41.10
2023-02-16T14:28:16.323Z,41.33
2023-02-16T14:30:42.729Z,38.70
2023-02-16T14:33:12.185Z,43.77
2023-02-16T14:35:41.121Z,43.47
2023-02-16T14:38:17.291Z,47.40
2023-02-16T14:40:57.827Z,45.50
2023-02-16T14:43:25.953Z,46.20
2023-02-16T14:46:06.992Z,47.27
2023-02-16T14:49:06.575Z,50.73
2023-02-16T14:51:51.331Z,44.80
2023-02-16T14:54:41.350Z,43.80
2023-02-16T14:57:14.178Z,44.23
2023-02-16T14:59:48.408Z,43.90
2023-02-16T15:02:35.688Z,43.70
2023-02-16T15:05:20.160Z,45.63
2023-02-16T15:07:50.631Z,40.77
2023-02-16T15:10:22.405Z,48.20
2023-02-16T15:12:51.914Z,46.43
2023-02-16T15:15:23.690Z,51.50
2023-02-16T15:17:51.285Z,48.33
2023-02-16T15:20:32.823Z,53.77
2023-02-16T15:23:02.202Z,53.77
2023-02-16T15:25:33.856Z,53.63
2023-02-16T15:28:04.360Z,51.30
2023-02-16T15:30:33.454Z,54.07
2023-02-16T15:33:06.585Z,51.77
2023-02-16T15:35:36.911Z,55.30
2023-02-16T15:38:05.634Z,52.10
2023-02-16T15:40:33.223Z,52.97
2023-02-16T15:43:23.089Z,52.00
2023-02-16T15:45:54.750Z,55.43
2023-02-16T15:48:23.126Z,54.17
2023-02-16T15:50:51.137Z,54.37
2023-02-16T15:53:24.332Z,57.13
2023-02-16T15:55:51.509Z,56.13
2023-02-16T15:58:17.992Z,55.57
2023-02-16T16:00:45.174Z,55.37
2023-02-16T16:03:17.559Z,56.37
2023-02-16T16:05:56.231Z,56.33
2023-02-16T16:08:26.824Z,55.60
2023-02-16T16:10:53.652Z,55.83
2023-02-16T16:13:26.483Z,55.67
2023-02-16T16:15:59.738Z,55.90
2023-02-16T16:18:44.872Z,59.20
2023-02-16T16:21:34.222Z,59.23
2023-02-16T16:24:03.671Z,59.77
2023-02-16T16:26:33.720Z,57.20
2023-02-16T16:29:00.757Z,57.10
2023-02-16T16:31:28.076Z,60.63
2023-02-16T16:34:07.083Z,59.43
2023-02-16T16:36:54.095Z,60.10
2023-02-16T16:39:26.934Z,56.50
2023-02-16T16:41:56.362Z,57.57
2023-02-16T16:44:38.419Z,63.43
2023-02-16T16:47:37.193Z,62.30
2023-02-16T16:50:31.443Z,59.20
2023-02-16T16:52:58.150Z,61.77
2023-02-16T16:55:28.117Z,64.43
2023-02-16T16:58:01.543Z,69.17
2023-02-16T17:00:31.342Z,68.60
2023-02-16T17:02:58.553Z,67.20
2023-02-16T17:05:25.255Z,73.30
2023-02-16T17:07:51.944Z,64.40
2023-02-16T17:10:20.941Z,68.10
2023-02-16T17:12:50.779Z,67.30
2023-02-16T17:15:37.919Z,66.67
2023-02-16T17:18:05.914Z,64.23
2023-02-16T17:20:32.617Z,69.13
2023-02-16T17:23:04.672Z,69.73
2023-02-16T17:25:32.988Z,67.30
2023-02-16T17:27:59.832Z,61.50
2023-02-16T17:30:26.310Z,70.13
2023-02-16T17:32:52.834Z,66.33
2023-02-16T17:35:19.238Z,67.03
2023-02-16T17:37:46.109Z,71.67
2023-02-16T17:40:19.285Z,74.70
2023-02-16T17:42:47.117Z,71.37
2023-02-16T17:45:19.375Z,73.23
2023-02-16T17:47:47.182Z,66.77
2023-02-16T17:50:15.177Z,67.37
2023-02-16T17:52:42.501Z,73.23
2023-02-16T17:55:09.656Z,72.23
2023-02-16T17:57:36.210Z,69.10
2023-02-16T18:00:08.145Z,70.20
2023-02-16T18:02:34.908Z,69.83
2023-02-16T18:05:01.363Z,71.87
2023-02-16T18:07:27.828Z,69.03
2023-02-16T18:09:54.379Z,71.53
2023-02-16T18:12:20.941Z,63.77
2023-02-16T18:14:47.378Z,68.97
2023-02-16T18:17:13.855Z,74.43
2023-02-16T18:19:40.323Z,71.77
2023-02-16T18:22:06.795Z,80.10
2023-02-16T18:24:33.191Z,68.67
2023-02-16T18:26:59.574Z,68.53
2023-02-16T18:29:25.960Z,65.17
2023-02-16T18:31:52.763Z,61.73
2023-02-16T18:34:19.179Z,63.03
2023-02-16T18:36:45.573Z,65.77
2023-02-16T18:39:12.021Z,62.37
2023-02-16T18:41:38.685Z,66.53
2023-02-16T18:44:05.554Z,65.07
2023-02-16T18:46:32.359Z,68.83
2023-02-16T18:48:58.950Z,62.63
2023-02-16T18:51:28.976Z,66.33
2023-02-16T18:53:57.052Z,68.03
2023-02-16T18:56:23.854Z,66.83
2023-02-16T18:58:50.256Z,64.00
2023-02-16T19:01:28.773Z,61.43
2023-02-16T19:03:55.398Z,76.50
2023-02-16T19:06:22.262Z,66.77
2023-02-16T19:08:49.279Z,61.43
2023-02-16T19:11:15.631Z,64.33
2023-02-16T19:13:42.014Z,73.77
2023-02-16T19:16:08.773Z,66.03
2023-02-16T19:18:35.369Z,63.80
2023-02-16T19:21:09.770Z,75.43
2023-02-16T19:23:37.795Z,69.00
2023-02-16T19:26:09.589Z,72.70
2023-02-16T19:28:36.039Z,72.23
2023-02-16T19:31:04.294Z,73.47
2023-02-16T19:33:31.480Z,71.67
2023-02-16T19:36:06.513Z,70.10
2023-02-16T19:38:33.252Z,68.60
2023-02-16T19:41:00.096Z,74.60
2023-02-16T19:43:27.196Z,78.83
2023-02-16T19:45:53.781Z,77.83
2023-02-16T19:48:20.249Z,69.47
2023-02-16T19:50:47.453Z,75.17
2023-02-16T19:53:14.007Z,72.87
2023-02-16T19:55:42.131Z,75.17
2023-02-16T19:58:10.053Z,74.50
2023-02-16T20:00:37.898Z,75.37
2023-02-16T20:03:04.668Z,77.17
2023-02-16T20:05:32.763Z,79.60
2023-02-16T20:07:59.470Z,70.77
2023-02-16T20:10:26.256Z,71.20
2023-02-16T20:12:52.714Z,64.50
2023-02-16T20:15:19.467Z,68.07
2023-02-16T20:17:46.274Z,63.67
2023-02-16T20:20:24.432Z,62.20
2023-02-16T20:22:51.117Z,63.50
2023-02-16T20:25:17.817Z,65.27
2023-02-16T20:27:44.420Z,62.30
2023-02-16T20:30:24.195Z,61.07
2023-02-16T20:32:50.860Z,67.67
2023-02-16T20:35:17.539Z,61.13
2023-02-16T20:37:44.370Z,56.33
2023-02-16T20:40:11.394Z,54.37
2023-02-16T20:42:37.959Z,58.80
2023-02-16T20:45:05.880Z,53.10
2023-02-16T20:47:32.445Z,43.37
2023-02-16T20:49:59.579Z,48.03
2023-02-16T20:52:26.644Z,48.97
2023-02-16T20:54:54.433Z,40.67
2023-02-16T20:57:26.720Z,44.33
2023-02-16T20:59:54.678Z,38.40
2023-02-16T21:02:21.681Z,41.17
2023-02-16T21:04:48.498Z,42.10
2023-02-16T21:07:15.186Z,40.53
2023-02-16T21:09:42.829Z,39.43
2023-02-16T21:12:11.882Z,40.43
2023-02-16T21:14:38.347Z,41.00
2023-02-16T21:17:05.073Z,41.40
2023-02-16T21:19:31.531Z,38.93
2023-02-16T21:21:59.499Z,41.33
2023-02-16T21:24:35.692Z,42.90
2023-02-16T21:27:02.392Z,44.83
2023-02-16T21:29:28.826Z,41.30
2023-02-16T21:31:55.292Z,42.87
2023-02-16T21:34:21.740Z,40.23
2023-02-16T21:36:48.239Z,40.10
2023-02-16T21:39:14.699Z,40.03
2023-02-16T21:41:41.124Z,39.00
2023-02-16T21:44:15.566Z,37.10
2023-02-16T21:46:44.248Z,39.17
2023-02-16T21:49:19.090Z,39.47
2023-02-16T21:51:47.325Z,40.03
2023-02-16T21:54:16.575Z,36.30
2023-02-16T21:56:51.186Z,36.87
2023-02-16T21:59:19.343Z,34.60
2023-02-16T22:01:51.346Z,32.47
2023-02-16T22:04:21.017Z,33.10
2023-02-16T22:06:49.035Z,31.07
2023-02-16T22:09:19.954Z,37.17
2023-02-16T22:11:47.251Z,40.83
2023-02-16T22:14:14.252Z,41.57
2023-02-16T22:16:41.070Z,36.83
2023-02-16T22:19:10.847Z,39.87
2023-02-16T22:21:39.873Z,35.27
2023-02-16T22:24:07.242Z,38.00
2023-02-16T22:26:35.172Z,40.03
2023-02-16T22:29:03.039Z,40.60
2023-02-16T22:31:29.605Z,34.37
2023-02-16T22:33:58.197Z,37.97
2023-02-16T22:36:24.731Z,33.43
2023-02-16T22:38:51.796Z,33.33
2023-02-16T22:41:18.498Z,30.77
2023-02-16T22:43:44.919Z,30.00
2023-02-16T22:46:16.283Z,31.67
2023-02-16T22:48:43.500Z,30.17
2023-02-16T22:51:12.347Z,32.27
2023-02-16T22:53:38.823Z,31.67
2023-02-16T22:56:07.313Z,33.27
2023-02-16T22:58:35.986Z,32.13
2023-02-16T23:01:02.922Z,28.80
2023-02-16T23:03:30.081Z,32.40
2023-02-16T23:05:56.558Z,32.17
2023-02-16T23:08:23.758Z,36.63
2023-02-16T23:11:02.485Z,30.37
2023-02-16T23:13:33.223Z,31.10
2023-02-16T23:16:12.947Z,33.40
2023-02-16T23:18:39.491Z,33.57
2023-02-16T23:21:17.490Z,33.57
2023-02-16T23:23:44.879Z,27.70
2023-02-16T23:26:11.402Z,30.07
2023-02-16T23:28:39.659Z,31.17
2023-02-16T23:31:06.801Z,33.83
2023-02-16T23:33:33.891Z,30.33
2023-02-16T23:36:00.489Z,30.43
2023-02-16T23:38:27.583Z,28.03
2023-02-16T23:41:02.870Z,30.20
2023-02-16T23:43:29.597Z,30.00
2023-02-16T23:45:56.718Z,26.10
2023-02-16T23:48:23.432Z,25.20
2023-02-16T23:50:50.749Z,28.07
2023-02-16T23:53:17.960Z,27.00
2023-02-16T23:55:44.362Z,27.47
2023-02-16T23:58:11.149Z,25.83
